Time;durP1;ratioP1;P1;durP2;ratioP2;P2;SDS_P1;SDS_P2;PMS_P1;PMS_P2;Temp;Humidity;BMP_temperature;BMP_pressure;BME280_temperature;BME280_humidity;BME280_pressure;Samples;Min_cycle;Max_cycle;Signal;HPM_P1;HPM_P2
2022/08/28 00:01:03;;;;;;;23.15;11.53;;;;;;;21.63;53.29;100132.48;1671974;86;21375;-55
2022/08/28 00:04:08;;;;;;;22.40;10.82;;;;;;;21.55;53.21;100131.52;1671902;86;21261;-55
2022/08/28 00:07:14;;;;;;;19.52;9.75;;;;;;;21.47;53.25;100129.72;1671948;86;21375;-56
2022/08/28 00:10:21;;;;;;;18.17;9.63;;;;;;;21.42;53.38;100124.05;1671915;86;21174;-56
2022/08/28 00:13:30;;;;;;;26.40;10.85;;;;;;;21.39;53.50;100130.12;1671910;86;21291;-54
2022/08/28 00:16:37;;;;;;;21.40;10.20;;;;;;;21.36;53.61;100120.89;1671894;86;21350;-55
2022/08/28 00:19:43;;;;;;;20.85;10.15;;;;;;;21.29;53.60;100118.27;1671902;86;21205;-56
2022/08/28 00:22:53;;;;;;;20.12;9.28;;;;;;;21.26;53.62;100117.38;1671889;86;21249;-56
2022/08/28 00:25:59;;;;;;;20.30;10.45;;;;;;;21.23;53.71;100112.28;1671951;86;21257;-56
2022/08/28 00:29:06;;;;;;;21.12;10.65;;;;;;;21.22;53.78;100112.00;1671874;86;21743;-56
2022/08/28 00:32:12;;;;;;;23.27;10.88;;;;;;;21.20;53.86;100111.39;1671905;86;21386;-55
2022/08/28 00:35:18;;;;;;;22.48;10.53;;;;;;;21.19;53.88;100105.55;1670619;84;21276;-55
2022/08/28 00:38:25;;;;;;;21.30;11.00;;;;;;;21.15;53.87;100105.77;1678403;85;21877;-55
2022/08/28 00:41:34;;;;;;;21.12;9.73;;;;;;;21.12;53.90;100109.02;1678448;84;21239;-55
2022/08/28 00:44:44;;;;;;;19.00;10.82;;;;;;;21.06;53.89;100105.03;1678544;85;21391;-54
2022/08/28 00:47:51;;;;;;;17.95;10.25;;;;;;;21.03;53.93;100103.58;1678427;84;21216;-55
2022/08/28 00:54:22;;;;;;;20.95;10.35;;;;;;;20.96;53.99;100109.86;1678454;85;21252;-56
2022/08/28 00:57:31;;;;;;;19.27;9.93;;;;;;;20.92;54.04;100107.23;1678378;84;21223;-56
2022/08/28 01:00:43;;;;;;;21.45;9.78;;;;;;;20.88;54.04;100103.81;1678389;84;21203;-55
2022/08/28 01:03:49;;;;;;;18.82;8.85;;;;;;;20.84;54.05;100109.02;1678494;85;21263;-55
2022/08/28 01:06:56;;;;;;;17.73;9.58;;;;;;;20.80;54.04;100107.84;1678279;84;21401;-54
2022/08/28 01:10:03;;;;;;;22.67;9.48;;;;;;;20.77;54.15;100098.61;1678639;85;21196;-56
2022/08/28 01:13:09;;;;;;;18.70;9.13;;;;;;;20.73;54.24;100094.08;1678592;85;21196;-56
2022/08/28 01:16:15;;;;;;;20.52;10.70;;;;;;;20.72;54.30;100091.55;1678603;84;21279;-56
2022/08/28 01:19:27;;;;;;;22.82;11.10;;;;;;;20.68;54.26;100088.95;1678510;85;21199;-56
2022/08/28 01:22:52;;;;;;;18.73;10.80;;;;;;;20.62;54.20;100081.61;1678508;84;21267;-54
2022/08/28 01:26:00;;;;;;;19.55;11.35;;;;;;;20.60;54.25;100083.24;1678194;84;21220;-55
2022/08/28 01:29:07;;;;;;;20.92;11.28;;;;;;;20.59;54.34;100084.34;1663723;85;21180;-56
2022/08/28 01:32:12;;;;;;;22.73;11.75;;;;;;;20.57;54.41;100074.55;1678539;84;21239;-55
2022/08/28 01:35:25;;;;;;;19.50;10.60;;;;;;;20.59;54.48;100075.16;1678554;85;21320;-55
2022/08/28 01:38:31;;;;;;;25.15;11.45;;;;;;;20.58;54.50;100074.87;1679793;83;21235;-55
2022/08/28 01:41:38;;;;;;;24.70;11.33;;;;;;;20.55;54.46;100078.14;1678600;84;21219;-56
2022/08/28 01:44:45;;;;;;;26.77;11.70;;;;;;;20.48;54.37;100074.12;1678611;85;21259;-56
2022/08/28 01:47:53;;;;;;;23.50;11.53;;;;;;;20.43;54.33;100077.33;1677953;84;21236;-56
2022/08/28 01:51:00;;;;;;;23.38;11.40;;;;;;;20.36;54.42;100073.86;1678594;84;21397;-55
2022/08/28 01:54:06;;;;;;;22.62;11.10;;;;;;;20.33;54.48;100074.32;1678367;85;21823;-56
2022/08/28 01:57:10;;;;;;;23.98;11.93;;;;;;;20.27;54.45;100076.17;1678119;84;21247;-56
2022/08/28 02:00:18;;;;;;;27.52;11.50;;;;;;;20.25;54.56;100079.73;1664005;85;21199;-56
2022/08/28 02:03:24;;;;;;;21.85;12.60;;;;;;;20.25;54.65;100081.13;1682025;85;21247;-55
2022/08/28 02:06:30;;;;;;;22.05;11.97;;;;;;;20.22;54.63;100086.33;1677981;84;21244;-55
2022/08/28 02:09:31;;;;;;;23.12;11.90;;;;;;;20.18;54.61;100085.14;1677404;85;21256;-57
2022/08/28 02:12:37;;;;;;;31.05;14.55;;;;;;;20.14;54.64;100093.12;1678492;84;21220;-56
2022/08/28 02:15:43;;;;;;;26.55;13.35;;;;;;;20.12;54.77;100095.25;1678503;84;21191;-56
2022/08/28 02:18:49;;;;;;;27.90;13.05;;;;;;;20.10;54.83;100102.16;1678446;85;21271;-55
2022/08/28 02:21:55;;;;;;;28.35;14.85;;;;;;;20.07;54.86;100093.78;1678188;84;21248;-55
2022/08/28 02:25:00;;;;;;;27.90;13.53;;;;;;;20.00;54.76;100097.22;1678201;85;21243;-57
2022/08/28 02:28:07;;;;;;;26.82;14.40;;;;;;;19.93;54.71;100101.22;1678533;85;21259;-57
2022/08/28 02:31:15;;;;;;;28.17;14.23;;;;;;;19.87;54.72;100103.59;1678456;84;21327;-56
2022/08/28 02:34:22;;;;;;;25.37;13.53;;;;;;;19.82;54.74;100109.84;1678530;85;21247;-57
2022/08/28 02:37:29;;;;;;;27.87;14.93;;;;;;;19.78;54.84;100120.30;1682167;83;21262;-56
2022/08/28 02:40:35;;;;;;;26.75;14.13;;;;;;;19.73;54.84;100116.86;1674835;85;21200;-55
2022/08/28 02:43:42;;;;;;;26.33;15.13;;;;;;;19.71;54.96;100116.81;1659268;85;21208;-56
2022/08/28 02:46:47;;;;;;;31.37;14.63;;;;;;;19.69;55.06;100118.45;1674687;84;21255;-56
2022/08/28 02:49:57;;;;;;;28.65;12.95;;;;;;;19.65;55.00;100114.98;1655435;86;21357;-57
2022/08/28 02:53:02;;;;;;;28.40;13.05;;;;;;;19.59;54.97;100113.17;1673771;86;21283;-55
2022/08/28 02:56:08;;;;;;;24.37;12.88;;;;;;;19.56;55.10;100109.49;1654997;86;21396;-56
2022/08/28 02:59:15;;;;;;;29.42;13.03;;;;;;;19.55;55.26;100108.63;1674140;86;21228;-57
2022/08/28 03:02:21;;;;;;;29.45;14.10;;;;;;;19.58;55.37;100104.55;1655263;86;21242;-54
2022/08/28 03:05:29;;;;;;;31.62;15.13;;;;;;;19.58;55.44;100108.72;1673577;86;21231;-54
2022/08/28 03:08:36;;;;;;;26.48;15.13;;;;;;;19.58;55.50;100107.33;1654996;86;21925;-54
2022/08/28 03:11:42;;;;;;;35.75;16.15;;;;;;;19.60;55.53;100103.77;1673663;84;21232;-54
2022/08/28 03:14:50;;;;;;;31.85;16.62;;;;;;;19.60;55.59;100101.00;1655304;86;21214;-57
2022/08/28 03:17:58;;;;;;;28.80;16.00;;;;;;;19.61;55.58;100104.92;1674048;84;21299;-57
2022/08/28 03:21:06;;;;;;;31.07;15.58;;;;;;;19.61;55.63;100106.84;1655486;86;21389;-55
2022/08/28 03:24:12;;;;;;;29.20;16.10;;;;;;;19.60;55.62;100111.54;1673678;86;21248;-57
2022/08/28 03:27:18;;;;;;;24.70;15.53;;;;;;;19.57;55.54;100110.64;1655330;86;21305;-54
2022/08/28 03:30:23;;;;;;;32.48;16.50;;;;;;;19.55;55.57;100101.69;1674155;86;21256;-56
2022/08/28 03:33:28;;;;;;;29.15;14.58;;;;;;;19.48;55.48;100106.53;1655321;86;21278;-55
2022/08/28 03:36:35;;;;;;;27.22;15.23;;;;;;;19.43;55.57;100100.85;1655170;86;21254;-55
2022/08/28 03:39:41;;;;;;;32.78;14.20;;;;;;;19.38;55.59;100100.72;1674512;83;21275;-55
2022/08/28 03:42:47;;;;;;;27.27;14.47;;;;;;;19.36;55.70;100092.34;1655347;86;21266;-55
2022/08/28 03:46:05;;;;;;;30.15;14.85;;;;;;;19.34;55.84;100098.95;1655296;86;21911;-56
2022/08/28 03:49:10;;;;;;;27.15;13.60;;;;;;;19.36;55.85;100099.28;1673510;86;21212;-55
2022/08/28 03:52:19;;;;;;;26.12;13.43;;;;;;;19.33;55.83;100091.73;1683521;85;21216;-56
2022/08/28 03:55:25;;;;;;;21.90;12.60;;;;;;;19.35;55.87;100092.88;1655088;86;21242;-56
2022/08/28 03:58:34;;;;;;;27.17;13.32;;;;;;;19.36;55.88;100085.40;1674196;86;21196;-56
2022/08/28 04:01:41;;;;;;;22.35;13.43;;;;;;;19.39;55.90;100093.25;1684011;85;21235;-56
2022/08/28 04:04:46;;;;;;;27.17;17.82;;;;;;;19.41;55.91;100091.08;1625583;88;21217;-55
2022/08/28 04:07:47;;;;;;;42.17;24.55;;;;;;;19.41;55.90;100091.08;1651477;87;21271;-56
2022/08/28 04:10:53;;;;;;;48.20;26.93;;;;;;;19.45;55.92;100086.73;1651824;87;21520;-55
2022/08/28 04:13:59;;;;;;;42.08;23.67;;;;;;;19.47;55.94;100090.97;1624856;88;21241;-55
2022/08/28 04:17:05;;;;;;;28.83;17.17;;;;;;;19.51;55.94;100092.70;1683332;85;21282;-55
2022/08/28 04:20:12;;;;;;;27.10;15.65;;;;;;;19.53;55.90;100094.70;1625013;88;21834;-55
2022/08/28 04:23:18;;;;;;;28.32;14.35;;;;;;;19.54;55.88;100096.38;1635620;86;21214;-55
2022/08/28 04:26:26;;;;;;;22.05;12.68;;;;;;;19.57;55.89;100100.09;1673703;85;21251;-55
2022/08/28 04:29:32;;;;;;;21.40;13.05;;;;;;;19.63;55.93;100104.68;1674236;85;21406;-56
2022/08/28 04:32:39;;;;;;;24.35;12.50;;;;;;;19.64;55.79;100111.37;1683972;85;21215;-56
2022/08/28 04:35:48;;;;;;;26.27;12.47;;;;;;;19.65;55.75;100119.14;1655229;86;21368;-55
2022/08/28 04:38:57;;;;;;;22.93;12.07;;;;;;;19.63;55.69;100122.73;1674007;86;21215;-55
2022/08/28 04:42:03;;;;;;;24.45;13.28;;;;;;;19.61;55.71;100131.30;1678895;83;21216;-56
2022/08/28 04:45:12;;;;;;;26.73;13.48;;;;;;;19.62;55.73;100134.91;1625483;88;21220;-56
2022/08/28 04:48:18;;;;;;;20.32;12.78;;;;;;;19.63;55.78;100133.84;1650242;86;21268;-56
2022/08/28 04:51:25;;;;;;;21.85;12.65;;;;;;;19.66;55.83;100152.27;1627245;88;21326;-56
2022/08/28 04:54:31;;;;;;;27.62;14.40;;;;;;;19.74;55.92;100162.17;1679324;85;21405;-55
2022/08/28 04:57:37;;;;;;;29.15;13.58;;;;;;;19.84;56.04;100171.58;1679127;85;21247;-56
2022/08/28 05:00:48;;;;;;;23.05;13.62;;;;;;;19.96;56.05;100177.16;1649816;87;21731;-55
2022/08/28 05:03:57;;;;;;;26.48;14.07;;;;;;;20.07;56.00;100172.13;1650146;87;21261;-55
2022/08/28 05:07:03;;;;;;;26.27;13.48;;;;;;;20.20;55.94;100181.08;1650201;87;21256;-55
2022/08/28 05:10:08;;;;;;;21.35;13.10;;;;;;;20.31;55.89;100178.83;1649940;87;21244;-55
2022/08/28 05:13:17;;;;;;;21.62;12.80;;;;;;;20.44;55.79;100184.14;1650088;87;21346;-55
2022/08/28 05:16:25;;;;;;;20.52;13.55;;;;;;;20.58;55.78;100188.34;1609265;87;21252;-56
2022/08/28 05:19:33;;;;;;;22.98;13.93;;;;;;;20.72;55.71;100191.14;1622992;88;21220;-55
2022/08/28 05:22:40;;;;;;;25.97;14.05;;;;;;;20.87;55.75;100196.19;1623150;87;21292;-54
2022/08/28 05:25:47;;;;;;;36.08;14.58;;;;;;;21.02;55.75;100193.75;1622683;87;22078;-55
2022/08/28 05:28:55;;;;;;;29.92;13.93;;;;;;;21.13;55.63;100202.60;1622869;88;21216;-55
2022/08/28 05:32:02;;;;;;;28.05;14.68;;;;;;;21.21;55.54;100211.09;1622902;87;21386;-54
2022/08/28 05:35:08;;;;;;;27.73;14.07;;;;;;;21.28;55.57;100232.12;1623235;88;21264;-54
2022/08/28 05:38:15;;;;;;;24.32;13.00;;;;;;;21.31;55.55;100226.62;1623243;88;21252;-55
2022/08/28 05:41:34;;;;;;;26.10;13.35;;;;;;;21.36;55.57;100208.05;1624869;83;21280;-56
2022/08/28 05:44:42;;;;;;;24.98;13.50;;;;;;;21.45;55.57;100202.39;1617014;88;21805;-55
2022/08/28 05:47:50;;;;;;;26.07;14.00;;;;;;;21.57;55.53;100200.37;1616746;87;21754;-56
2022/08/28 05:50:57;;;;;;;31.27;14.85;;;;;;;21.70;55.47;100191.69;1616742;87;21820;-55
2022/08/28 05:54:04;;;;;;;29.42;13.65;;;;;;;21.82;55.41;100191.08;1617741;88;21193;-56
2022/08/28 05:57:14;;;;;;;26.20;13.32;;;;;;;21.96;55.34;100197.17;1602629;88;21407;-55
2022/08/28 06:00:21;;;;;;;23.50;13.15;;;;;;;22.08;55.28;100199.30;1617492;88;21217;-55
2022/08/28 06:03:28;;;;;;;19.00;13.78;;;;;;;22.20;55.20;100206.47;1617278;89;21257;-56
2022/08/28 06:06:35;;;;;;;30.80;14.40;;;;;;;22.32;55.13;100197.16;1617218;87;21264;-56
2022/08/28 06:09:42;;;;;;;22.30;14.95;;;;;;;22.45;55.16;100178.66;1617330;89;21317;-56
2022/08/28 06:12:48;;;;;;;25.85;16.15;;;;;;;22.59;55.09;100177.20;1616997;87;21237;-55
2022/08/28 06:15:55;;;;;;;28.80;16.07;;;;;;;22.73;55.04;100187.73;1617236;87;21229;-55
2022/08/28 06:19:03;;;;;;;28.65;16.62;;;;;;;22.87;54.96;100191.81;1617213;89;21209;-56
2022/08/28 06:22:13;;;;;;;31.60;16.52;;;;;;;22.99;54.80;100187.49;1616911;87;21236;-55
2022/08/28 06:25:20;;;;;;;28.95;16.10;;;;;;;23.10;54.69;100189.30;1616962;89;21273;-55
2022/08/28 06:28:30;;;;;;;26.62;15.05;;;;;;;23.22;54.59;100194.17;1617232;88;21264;-55
2022/08/28 06:31:37;;;;;;;28.15;17.48;;;;;;;23.34;54.50;100190.72;1617211;87;21244;-54
2022/08/28 06:34:44;;;;;;;24.00;14.47;;;;;;;23.44;54.34;100188.00;1617251;89;21240;-53
2022/08/28 06:37:49;;;;;;;26.75;13.05;;;;;;;23.55;54.22;100193.98;1616693;87;21252;-55
2022/08/28 06:41:01;;;;;;;25.55;14.75;;;;;;;23.67;54.08;100196.61;1617609;87;21738;-56
2022/08/28 06:44:07;;;;;;;28.10;15.08;;;;;;;23.78;53.99;100206.23;1626891;82;21252;-55
2022/08/28 06:47:14;;;;;;;24.23;13.53;;;;;;;23.89;53.87;100206.61;1624950;87;21771;-55
2022/08/28 06:50:21;;;;;;;25.17;13.68;;;;;;;23.99;53.70;100213.70;1660005;86;21223;-55
2022/08/28 06:53:29;;;;;;;29.18;13.40;;;;;;;24.11;53.58;100214.92;1660815;86;21278;-55
2022/08/28 06:56:37;;;;;;;30.35;14.85;;;;;;;24.21;53.49;100220.59;1660955;85;21261;-55
2022/08/28 06:59:43;;;;;;;22.93;13.22;;;;;;;24.34;53.44;100218.73;1670074;85;21247;-55
2022/08/28 07:02:50;;;;;;;27.27;13.50;;;;;;;24.46;53.37;100214.63;1687972;85;21259;-54
2022/08/28 07:05:59;;;;;;;26.37;14.43;;;;;;;24.59;53.26;100216.92;1656491;85;21317;-54
2022/08/28 07:09:06;;;;;;;21.40;10.55;;;;;;;24.71;53.16;100208.34;1672717;85;21223;-56
2022/08/28 07:12:13;;;;;;;28.30;13.08;;;;;;;24.83;53.04;100198.59;1677030;84;21218;-55
2022/08/28 07:15:18;;;;;;;21.75;11.68;;;;;;;24.95;52.90;100203.44;1678457;85;21756;-56
2022/08/28 07:18:24;;;;;;;27.22;12.50;;;;;;;25.05;52.71;100199.24;1678218;85;21425;-56
2022/08/28 07:21:32;;;;;;;29.30;12.45;;;;;;;25.14;52.54;100195.91;1677316;84;21377;-55
2022/08/28 07:24:39;;;;;;;24.85;11.50;;;;;;;25.19;52.46;100193.13;1676995;85;21203;-54
2022/08/28 07:27:46;;;;;;;26.40;11.93;;;;;;;25.30;52.35;100178.03;1676820;84;21231;-55
2022/08/28 07:30:52;;;;;;;27.05;11.65;;;;;;;25.40;52.24;100172.48;1676986;84;21191;-55
2022/08/28 07:34:01;;;;;;;32.50;12.33;;;;;;;25.49;52.16;100179.22;1677316;85;21729;-54
2022/08/28 07:37:11;;;;;;;25.80;10.55;;;;;;;25.59;52.05;100168.02;1678070;84;21239;-54
2022/08/28 07:40:21;;;;;;;24.05;10.93;;;;;;;25.65;51.90;100163.55;1678382;85;21242;-56
2022/08/28 07:46:53;;;;;;;25.80;10.72;;;;;;;25.77;51.67;100161.30;1667885;84;21305;-54
2022/08/28 07:50:00;;;;;;;23.07;10.15;;;;;;;25.83;51.61;100153.73;1677253;84;21231;-55
2022/08/28 07:53:05;;;;;;;21.68;10.63;;;;;;;25.95;51.55;100150.06;1696288;84;21432;-54
2022/08/28 07:56:14;;;;;;;20.60;10.50;;;;;;;26.04;51.46;100142.78;1696174;83;21227;-55
2022/08/28 07:59:19;;;;;;;27.85;11.68;;;;;;;26.11;51.30;100128.77;1696150;84;21274;-55
2022/08/28 08:02:26;;;;;;;22.85;10.93;;;;;;;26.15;51.17;100123.41;1696148;83;21266;-55
2022/08/28 08:05:33;;;;;;;23.10;9.93;;;;;;;26.23;51.19;100120.87;1685165;84;21369;-55
2022/08/28 08:08:41;;;;;;;24.10;9.40;;;;;;;26.35;51.13;100110.74;1695649;84;21215;-55
2022/08/28 08:11:48;;;;;;;20.82;9.35;;;;;;;26.44;51.06;100114.63;1668187;84;21266;-56
2022/08/28 08:14:55;;;;;;;20.32;9.90;;;;;;;26.55;51.01;100112.06;1691329;84;21363;-54
2022/08/28 08:18:02;;;;;;;26.07;9.65;;;;;;;26.67;50.99;100113.17;1695623;84;21302;-55
2022/08/28 08:21:10;;;;;;;24.20;11.08;;;;;;;26.78;50.93;100108.64;1695659;83;21613;-54
2022/08/28 08:24:19;;;;;;;27.48;10.85;;;;;;;26.88;50.83;100104.34;1680585;84;21408;-56
2022/08/28 08:27:25;;;;;;;24.07;10.78;;;;;;;26.97;50.70;100095.61;1667968;84;21254;-56
2022/08/28 08:30:31;;;;;;;24.65;9.60;;;;;;;27.06;50.59;100085.42;1667462;86;21218;-56
2022/08/28 08:33:38;;;;;;;25.45;10.08;;;;;;;27.13;50.43;100081.70;1694378;84;21404;-55
2022/08/28 08:36:45;;;;;;;22.90;10.08;;;;;;;27.21;50.37;100079.69;1688252;83;21258;-54
2022/08/28 08:39:54;;;;;;;25.02;8.75;;;;;;;27.32;50.33;100076.28;1693911;84;21206;-54
2022/08/28 08:43:00;;;;;;;26.02;8.53;;;;;;;27.43;50.28;100069.45;1694406;83;21250;-54
2022/08/28 08:46:06;;;;;;;20.57;8.70;;;;;;;27.52;50.20;100058.68;1686762;84;21218;-54
2022/08/28 08:49:25;;;;;;;24.23;9.10;;;;;;;27.62;50.11;100051.53;1679961;85;21215;-55
2022/08/28 08:52:58;;;;;;;20.75;9.13;;;;;;;27.70;49.99;100056.52;1688065;85;21251;-55
2022/08/28 08:56:07;;;;;;;20.68;7.83;;;;;;;27.80;49.94;100049.95;1688091;85;21361;-56
2022/08/28 08:59:29;;;;;;;27.52;8.23;;;;;;;27.92;49.88;100049.59;1677905;85;21199;-56
2022/08/28 09:02:39;;;;;;;22.27;7.97;;;;;;;28.02;49.79;100055.13;1670775;85;21263;-55
2022/08/28 09:05:57;;;;;;;23.20;8.68;;;;;;;28.11;49.70;100049.11;1676504;85;21819;-55
2022/08/28 09:09:12;;;;;;;24.65;7.53;;;;;;;28.21;49.62;100044.19;1678292;85;21365;-55
2022/08/28 09:12:27;;;;;;;22.77;7.00;;;;;;;28.31;49.47;100044.08;1677481;85;21227;-56
2022/08/28 09:15:43;;;;;;;22.27;7.35;;;;;;;28.39;49.41;100050.45;1678101;85;21811;-55
2022/08/28 09:18:50;;;;;;;27.52;6.67;;;;;;;28.51;49.34;100054.29;1677390;85;21220;-56
2022/08/28 09:21:57;;;;;;;21.73;7.00;;;;;;;28.61;49.24;100053.57;1677868;84;21323;-55
2022/08/28 09:25:02;;;;;;;26.40;7.40;;;;;;;28.70;49.08;100040.48;1677851;85;21282;-56
2022/08/28 09:28:14;;;;;;;21.82;6.45;;;;;;;28.79;48.92;100047.70;1677564;85;21212;-56
2022/08/28 09:31:30;;;;;;;29.40;7.25;;;;;;;28.90;48.90;100040.20;1678038;84;21239;-55
2022/08/28 09:34:39;;;;;;;24.63;6.75;;;;;;;29.03;48.77;100038.60;1678101;85;21223;-55
2022/08/28 09:37:46;;;;;;;20.88;6.45;;;;;;;29.18;48.71;100048.25;1677910;84;21251;-56
2022/08/28 09:44:20;;;;;;;25.15;6.45;;;;;;;29.45;48.55;100054.61;1664432;85;21974;-56
2022/08/28 09:47:55;;;;;;;19.20;6.55;;;;;;;29.58;48.33;100058.88;1678428;81;21220;-56
2022/08/28 09:51:12;;;;;;;16.80;6.15;;;;;;;29.65;48.16;100052.30;1676819;84;21243;-56
2022/08/28 09:54:35;;;;;;;19.82;5.60;;;;;;;29.79;48.05;100051.77;1677478;85;21736;-56
2022/08/28 09:57:41;;;;;;;19.57;6.25;;;;;;;29.94;47.91;100067.59;1677885;84;21275;-56
2022/08/28 10:00:51;;;;;;;17.80;6.35;;;;;;;30.10;47.75;100070.36;1678174;84;21855;-56
2022/08/28 10:04:18;;;;;;;27.27;6.12;;;;;;;30.20;47.58;100068.77;1678179;85;21738;-56
2022/08/28 10:07:46;;;;;;;19.95;6.47;;;;;;;30.28;47.39;100071.74;1678586;84;21242;-56
2022/08/28 10:11:03;;;;;;;18.57;5.05;;;;;;;30.38;47.14;100072.11;1677035;85;21236;-54
2022/08/28 10:14:17;;;;;;;21.65;5.90;;;;;;;30.42;46.89;100066.92;1676451;85;21638;-55
2022/08/28 10:17:36;;;;;;;26.37;6.28;;;;;;;30.46;46.67;100062.91;1676181;85;21279;-55
2022/08/28 10:20:53;;;;;;;16.60;5.45;;;;;;;30.55;46.56;100059.59;1650587;85;21362;-55
2022/08/28 10:24:45;;;;;;;21.37;5.30;;;;;;;30.68;46.32;100060.17;1632873;86;21266;-56
2022/08/28 10:28:16;;;;;;;20.75;5.53;;;;;;;30.68;46.32;100060.17;1630653;86;21238;-56
2022/08/28 10:31:48;;;;;;;20.05;4.72;;;;;;;30.86;46.10;100056.98;1650569;85;21311;-55
2022/08/28 10:35:26;;;;;;;18.23;6.12;;;;;;;30.99;45.94;100040.53;1650974;87;21255;-55
2022/08/28 10:38:48;;;;;;;22.17;4.80;;;;;;;30.94;45.64;100035.02;1650677;87;21223;-56
2022/08/28 10:42:02;;;;;;;22.48;5.60;;;;;;;30.84;45.45;100043.73;1650519;85;21294;-56
2022/08/28 10:45:09;;;;;;;;;;;;;;;30.74;45.31;100043.91;1652936;87;21788;-56
2022/08/28 10:48:31;;;;;;;28.23;6.12;;;;;;;30.62;45.27;100039.64;1648228;84;20236;-56
2022/08/28 10:51:56;;;;;;;21.95;4.90;;;;;;;30.60;45.30;100032.05;1646215;86;21611;-57
2022/08/28 10:55:18;;;;;;;18.57;5.78;;;;;;;30.73;45.25;100035.19;1646593;87;21204;-57
2022/08/28 10:58:24;;;;;;;17.48;5.90;;;;;;;30.72;45.14;100017.95;1646539;86;21373;-57
2022/08/28 11:01:43;;;;;;;25.43;5.85;;;;;;;30.63;45.17;100028.61;1646415;86;21389;-56
2022/08/28 11:04:48;;;;;;;20.43;5.67;;;;;;;30.50;44.76;100034.27;1646149;87;21260;-57
2022/08/28 11:08:00;;;;;;;15.13;5.90;;;;;;;30.30;44.79;100040.35;1645988;86;21259;-57
2022/08/28 11:31:18;;;;;;;18.37;8.43;;;;;;;27.19;44.74;100113.45;1788603;79;28181;-57
2022/08/28 11:35:03;;;;;;;20.68;8.25;;;;;;;26.61;45.05;100117.11;1700929;84;21280;-58
2022/08/28 11:38:09;;;;;;;17.35;7.62;;;;;;;26.04;45.93;100116.13;1668942;84;21276;-59
2022/08/28 11:41:39;;;;;;;19.77;8.75;;;;;;;25.60;46.63;100107.46;1701443;84;21205;-56
2022/08/28 11:44:51;;;;;;;20.57;9.80;;;;;;;25.23;47.12;100125.63;1701349;84;21189;-59
2022/08/28 11:47:58;;;;;;;23.07;11.33;;;;;;;24.74;47.73;100125.19;1700921;84;21287;-56
2022/08/28 11:51:26;;;;;;;17.37;10.05;;;;;;;24.47;48.29;100110.48;1698014;84;21764;-58
2022/08/28 11:54:39;;;;;;;22.22;10.82;;;;;;;24.34;48.82;100097.83;1672582;86;21296;-56
2022/08/28 11:58:11;;;;;;;24.87;11.68;;;;;;;24.24;49.31;100096.41;1672741;85;21581;-56
2022/08/28 12:01:19;;;;;;;23.45;11.85;;;;;;;24.11;49.68;100087.64;1673166;86;21863;-55
2022/08/28 12:04:28;;;;;;;23.20;11.50;;;;;;;23.98;50.05;100074.98;1673170;86;21232;-56
2022/08/28 12:07:44;;;;;;;17.48;9.45;;;;;;;23.91;50.47;100077.16;1673174;85;21232;-58
2022/08/28 12:11:01;;;;;;;18.12;8.60;;;;;;;23.89;50.69;100072.39;1698313;84;21232;-57
2022/08/28 12:14:10;;;;;;;18.37;8.35;;;;;;;23.82;50.91;100077.36;1701278;84;21259;-56
2022/08/28 12:17:32;;;;;;;15.28;7.80;;;;;;;23.78;51.15;100084.62;1701068;84;21244;-56
2022/08/28 12:21:07;;;;;;;14.68;8.03;;;;;;;23.73;51.37;100076.19;1701321;84;21193;-56
2022/08/28 12:24:28;;;;;;;12.78;7.42;;;;;;;23.72;51.65;100073.12;1676348;85;21787;-56
2022/08/28 12:27:35;;;;;;;16.57;8.70;;;;;;;23.73;52.00;100073.94;1705948;84;21349;-56
2022/08/28 12:30:53;;;;;;;13.18;6.85;;;;;;;23.77;52.32;100084.31;1701286;83;21399;-56
2022/08/28 12:34:07;;;;;;;13.62;7.05;;;;;;;23.81;52.60;100095.27;1700537;84;21743;-54
2022/08/28 12:37:48;;;;;;;10.68;6.15;;;;;;;23.88;52.83;100102.84;1700704;84;21201;-56
2022/08/28 12:40:57;;;;;;;14.58;6.62;;;;;;;23.91;52.93;100084.70;1700556;84;21190;-58
2022/08/28 12:44:09;;;;;;;12.75;5.50;;;;;;;23.85;53.08;100081.01;1700044;84;21296;-57
2022/08/28 12:47:24;;;;;;;7.47;5.00;;;;;;;23.83;53.30;100100.03;1700137;84;21706;-58
2022/08/28 12:50:39;;;;;;;10.38;5.65;;;;;;;23.88;53.49;100129.41;1708008;84;21264;-57
2022/08/28 12:53:57;;;;;;;10.18;5.90;;;;;;;23.94;53.78;100135.34;1708204;84;21234;-55
2022/08/28 12:57:03;;;;;;;36.68;28.30;;;;;;;23.98;53.94;100137.05;1708340;84;21215;-56
2022/08/28 13:00:18;;;;;;;13.70;7.47;;;;;;;23.98;54.11;100150.50;1707972;84;21232;-57
2022/08/28 13:03:24;;;;;;;10.78;5.87;;;;;;;24.01;54.30;100150.50;1685726;84;21329;-57
2022/08/28 13:06:39;;;;;;;13.88;6.80;;;;;;;23.99;54.48;100177.34;1708399;84;21716;-57
2022/08/28 13:09:52;;;;;;;15.70;7.20;;;;;;;24.05;54.71;100193.63;1708422;84;21244;-57
2022/08/28 13:13:05;;;;;;;19.20;6.58;;;;;;;24.04;54.91;100196.96;1688036;84;21634;-58
2022/08/28 13:16:16;;;;;;;14.33;6.53;;;;;;;24.07;55.12;100194.20;1707569;84;21200;-57
2022/08/28 13:19:35;;;;;;;13.90;6.65;;;;;;;24.10;55.29;100200.08;1707561;84;21768;-57
2022/08/28 13:22:50;;;;;;;14.40;7.25;;;;;;;24.15;55.52;100195.92;1703027;84;21279;-57
2022/08/28 13:25:55;;;;;;;17.27;7.50;;;;;;;24.22;55.76;100193.75;1679373;85;21216;-58
2022/08/28 13:29:03;;;;;;;17.85;7.80;;;;;;;24.32;55.96;100193.83;1679308;85;21372;-58
2022/08/28 13:32:14;;;;;;;11.35;7.03;;;;;;;24.44;56.09;100204.25;1674615;83;21229;-59
2022/08/28 13:35:32;;;;;;;19.35;7.87;;;;;;;24.55;56.21;100203.19;1669940;86;21233;-57
2022/08/28 13:38:37;;;;;;;14.40;7.15;;;;;;;24.62;56.27;100191.75;1670012;86;21291;-57
2022/08/28 13:41:44;;;;;;;13.98;7.58;;;;;;;24.74;56.40;100186.25;1670055;86;21233;-59
2022/08/28 13:44:57;;;;;;;11.85;6.90;;;;;;;24.87;56.50;100184.89;1669762;86;21212;-57
2022/08/28 13:48:04;;;;;;;11.83;7.47;;;;;;;25.05;56.62;100176.83;1696587;83;21244;-58
2022/08/28 13:51:17;;;;;;;9.35;7.10;;;;;;;25.35;56.76;100176.67;1697764;84;21220;-57
2022/08/28 13:54:25;;;;;;;13.93;6.50;;;;;;;25.59;56.82;100175.03;1698655;84;21221;-58
2022/08/28 13:57:32;;;;;;;11.80;6.85;;;;;;;25.82;56.86;100181.48;1698383;84;21402;-58
2022/08/28 14:00:39;;;;;;;23.83;6.95;;;;;;;26.03;56.80;100184.61;1703859;83;21216;-59
2022/08/28 14:03:48;;;;;;;15.68;7.35;;;;;;;26.28;56.77;100188.78;1708668;84;21417;-58
2022/08/28 14:06:56;;;;;;;13.90;6.03;;;;;;;26.57;56.66;100189.85;1708612;84;21208;-59
2022/08/28 14:10:04;;;;;;;11.80;5.83;;;;;;;26.77;56.42;100174.36;1708143;84;21236;-58
2022/08/28 14:13:11;;;;;;;11.55;6.62;;;;;;;26.96;56.27;100169.78;1708134;84;21824;-59
2022/08/28 14:16:18;;;;;;;15.03;6.05;;;;;;;27.09;56.11;100162.13;1707875;84;21725;-59
2022/08/28 14:19:24;;;;;;;11.25;6.15;;;;;;;27.23;56.00;100144.90;1693348;84;21752;-59
2022/08/28 14:22:31;;;;;;;10.95;6.10;;;;;;;27.37;55.94;100134.71;1708914;83;21554;-58
2022/08/28 14:25:37;;;;;;;12.18;5.97;;;;;;;27.42;55.81;100132.42;1698903;84;21207;-57
2022/08/28 14:28:43;;;;;;;12.18;6.00;;;;;;;27.44;55.75;100136.64;1709330;83;21741;-58
2022/08/28 14:31:51;;;;;;;12.85;5.28;;;;;;;27.43;55.70;100139.16;1698199;83;21358;-58
2022/08/28 14:34:58;;;;;;;12.80;5.87;;;;;;;27.39;55.56;100140.05;1696025;83;21373;-59
2022/08/28 14:38:05;;;;;;;13.90;6.25;;;;;;;27.34;55.54;100147.95;1665084;86;21264;-58
2022/08/28 14:41:14;;;;;;;14.75;6.45;;;;;;;27.31;55.55;100156.13;1665537;85;21212;-60
2022/08/28 14:44:20;;;;;;;12.35;6.10;;;;;;;27.28;55.62;100164.59;1713300;83;21227;-58
2022/08/28 14:47:28;;;;;;;15.90;6.00;;;;;;;27.31;55.63;100165.96;1715568;83;21224;-59
2022/08/28 14:50:35;;;;;;;15.98;6.53;;;;;;;27.36;55.61;100156.94;1714072;83;21228;-58
2022/08/28 14:53:41;;;;;;;15.32;6.28;;;;;;;27.43;55.56;100150.41;1714715;83;21279;-58
2022/08/28 14:56:50;;;;;;;12.03;6.30;;;;;;;27.49;55.53;100152.08;1715093;83;21200;-62